Search for airport 
image banner adimage banner ad
image banner ad

TUPJ - Terrance B Lettsome Intl

Situé à Roadtown, Virgin Islands British

ICAO - TUPJ, IATA - EIS

Données fournies par Airmate  

Information générale

Coordonnées: N18°26'44" W64°32'30"
Élévation : 16 feet MSL.
Variation magnétique : -13° East
Voir autres Aéroports à (unassigned)

Données opérationnelles

Special qualification required
Heure actuelle UTC:
Heure actuelle locale:
Météo
METAR: TUPJ 281200Z 05012KT 10SM VCSH SCT018 SCT036 25/20 A3010 RMK Q1019 VIS16KM
TAF: TAF TUPJ 281100Z 2812/0112 07015KT 9999 SCT018 PROB40 TEMPO 2812/0112 07015G25KT PROB30 TEMPO 2820/0112 SHRA
Voir NOTAMs / SUP AIP / TFR affectant cet aéroport [VIEW]
Fréquences de communication: [VIEW]

Pistes:

Identifiant RWYQFULongueur (ft)Largeur (ft)SurfaceLDA (ft)
0761°464698ASP
25241°464698

Coordonnées de l'aéroport

Adresse: Roadtown Virgin Islands British

Vue satellite de TUPJ